KELK/ELK METAR and TAF weather

Enter ICAO airport designator
Station Type Date Time Source
KELK METAR 2018/01/19 22:55 UTC NOAA

KELK 192255Z AUTO 17016G21KT 10SM CLR 16/M07 A2980 RMK AO2 T01551073


Station Type Date Time Source
KELK Decoded METAR 2018/01/19 22:55 UTC NOAA

Station name not available
Jan 19, 2018 - 05:55 PM EST / 2018.01.19 2255 UTC
Wind: from the S (170 degrees) at 18 MPH (16 KT) gusting to 24 MPH (21 KT):0
Visibility: 10 mile(s):0
Sky conditions: clear
Temperature: 59.9 F (15.5 C)
Dew Point: 18.9 F (-7.3 C)
Relative Humidity: 20%
Pressure (altimeter): 29.8 in. Hg (1009 hPa)
ob: KELK 192255Z AUTO 17016G21KT 10SM CLR 16/M07 A2980 RMK AO2 T01551073
cycle: 23

Station Type Date Time Source
KELK TAF UTC NOAA

Error!


Example: see airport list